Time;durP1;ratioP1;P1;durP2;ratioP2;P2;SDS_P1;SDS_P2;PMS_P1;PMS_P2;Temp;Humidity;BMP_temperature;BMP_pressure;BME280_temperature;BME280_humidity;BME280_pressure;Samples;Min_cycle;Max_cycle;Signal;HPM_P1;HPM_P2
2022/07/01 00:00:41;;;;;;;;;;;;;;;14.99;85.91;96554.41;5093495;28;19953;-74
2022/07/01 00:03:07;;;;;;;;;;;;;;;15.01;86.16;96559.41;5093789;28;19960;-73
2022/07/01 00:05:33;;;;;;;;;;;;;;;15.02;84.91;96563.66;5092851;28;19962;-73
2022/07/01 00:07:59;;;;;;;;;;;;;;;15.00;84.97;96566.53;5093549;28;19973;-74
2022/07/01 00:10:25;;;;;;;;;;;;;;;14.99;83.79;96569.41;5093811;28;19983;-74
2022/07/01 00:12:51;;;;;;;;;;;;;;;14.98;82.62;96558.06;5093279;28;20044;-74
2022/07/01 00:15:16;;;;;;;;;;;;;;;15.00;83.71;96563.13;5093881;28;20037;-74
2022/07/01 00:17:43;;;;;;;;;;;;;;;15.04;84.67;96558.94;5093570;28;20025;-74
2022/07/01 00:20:09;;;;;;;;;;;;;;;15.09;84.92;96559.00;5093603;28;19962;-74
2022/07/01 00:22:36;;;;;;;;;;;;;;;15.13;85.62;96554.03;5093284;28;19960;-75
2022/07/01 00:25:02;;;;;;;;;;;;;;;15.17;85.31;96550.66;5093362;28;19967;-74
2022/07/01 00:27:28;;;;;;;;;;;;;;;15.18;85.09;96539.06;5093176;28;19968;-73
2022/07/01 00:29:54;;;;;;;;;;;;;;;15.20;85.17;96544.09;5093081;28;19989;-73
2022/07/01 00:32:20;;;;;;;;;;;;;;;15.20;83.71;96539.63;5093431;28;20006;-73
2022/07/01 00:34:45;;;;;;;;;;;;;;;15.17;82.48;96534.81;5093703;28;20009;-73
2022/07/01 00:37:11;;;;;;;;;;;;;;;15.16;82.93;96542.97;5092889;28;19957;-73
2022/07/01 00:39:37;;;;;;;;;;;;;;;15.16;83.68;96543.78;5093609;28;20046;-74
2022/07/01 00:42:04;;;;;;;;;;;;;;;15.16;84.12;96541.16;5093206;28;19967;-74
2022/07/01 00:44:30;;;;;;;;;;;;;;;15.18;84.25;96541.72;5093055;28;20408;-74
2022/07/01 00:46:58;;;;;;;;;;;;;;;15.18;84.36;96531.13;5092128;28;20051;-74
2022/07/01 00:49:25;;;;;;;;;;;;;;;15.17;83.87;96537.44;5092905;28;19979;-74
2022/07/01 00:51:52;;;;;;;;;;;;;;;15.17;82.86;96528.75;5093024;28;19966;-74
2022/07/01 00:54:19;;;;;;;;;;;;;;;15.14;82.71;96527.38;5093338;28;20314;-74
2022/07/01 00:56:45;;;;;;;;;;;;;;;15.13;83.68;96527.63;5092924;28;19963;-74
2022/07/01 00:59:11;;;;;;;;;;;;;;;15.12;84.52;96520.72;5092936;28;19970;-74
2022/07/01 01:01:37;;;;;;;;;;;;;;;15.11;84.55;96522.59;5092962;28;19960;-74
2022/07/01 01:04:03;;;;;;;;;;;;;;;15.12;85.45;96528.66;5093026;28;20016;-74
2022/07/01 01:06:29;;;;;;;;;;;;;;;15.12;85.00;96526.00;5094030;28;19956;-74
2022/07/01 01:08:55;;;;;;;;;;;;;;;15.09;85.34;96524.66;5096489;28;19958;-73
2022/07/01 01:11:20;;;;;;;;;;;;;;;15.05;83.81;96515.63;5096388;28;20484;-74
2022/07/01 01:13:46;;;;;;;;;;;;;;;15.02;83.18;96514.28;5096946;28;19963;-74
2022/07/01 01:16:22;;;;;;;;;;;;;;;15.00;84.21;96520.84;5096379;28;19977;-74
2022/07/01 01:18:51;;;;;;;;;;;;;;;14.98;84.56;96536.16;5093627;28;20334;-74
2022/07/01 01:21:18;;;;;;;;;;;;;;;14.94;84.78;96541.09;5096371;28;19963;-74
2022/07/01 01:23:44;;;;;;;;;;;;;;;14.89;84.85;96535.78;5096343;28;19955;-74
2022/07/01 01:26:21;;;;;;;;;;;;;;;14.87;84.86;96540.50;5096523;28;19969;-73
2022/07/01 01:28:48;;;;;;;;;;;;;;;14.83;84.31;96531.44;5095642;28;19958;-74
2022/07/01 01:31:14;;;;;;;;;;;;;;;14.80;85.64;96535.38;5096331;28;20432;-73
2022/07/01 01:33:40;;;;;;;;;;;;;;;14.79;84.82;96522.41;5095932;28;20025;-73
2022/07/01 01:36:09;;;;;;;;;;;;;;;14.77;85.10;96525.28;5095866;28;19960;-73
2022/07/01 01:38:35;;;;;;;;;;;;;;;14.75;86.26;96513.38;5096404;28;20286;-74
2022/07/01 01:41:02;;;;;;;;;;;;;;;14.73;86.12;96510.19;5096090;28;20003;-73
2022/07/01 01:43:28;;;;;;;;;;;;;;;14.73;86.31;96513.63;5096115;28;19990;-73
2022/07/01 01:45:54;;;;;;;;;;;;;;;14.70;85.78;96510.66;5094831;28;20408;-73
2022/07/01 01:48:19;;;;;;;;;;;;;;;14.70;86.56;96510.66;5095756;28;20005;-73
2022/07/01 01:50:45;;;;;;;;;;;;;;;14.69;86.93;96498.50;5095606;28;19973;-73
2022/07/01 01:53:11;;;;;;;;;;;;;;;14.67;86.10;96488.19;5095078;28;20012;-73
2022/07/01 01:55:37;;;;;;;;;;;;;;;14.65;85.81;96485.00;5096030;28;19959;-73
2022/07/01 01:58:03;;;;;;;;;;;;;;;14.57;86.25;96478.31;5094339;28;19966;-73
2022/07/01 02:00:29;;;;;;;;;;;;;;;14.56;86.59;96478.53;5095533;28;20014;-73
2022/07/01 02:02:55;;;;;;;;;;;;;;;14.51;85.40;96476.59;5095532;28;20413;-74
2022/07/01 02:05:21;;;;;;;;;;;;;;;14.46;86.41;96471.22;5095351;28;20034;-74
2022/07/01 02:07:47;;;;;;;;;;;;;;;14.44;86.41;96472.53;5095548;28;19969;-74
2022/07/01 02:10:13;;;;;;;;;;;;;;;14.44;87.22;96472.53;5095448;28;19981;-74
2022/07/01 02:12:38;;;;;;;;;;;;;;;14.43;87.10;96465.66;5095452;28;19967;-73
2022/07/01 02:15:05;;;;;;;;;;;;;;;14.42;87.86;96470.13;5095076;28;19982;-75
2022/07/01 02:17:30;;;;;;;;;;;;;;;14.43;88.04;96486.78;5093970;28;20000;-74
2022/07/01 02:19:56;;;;;;;;;;;;;;;14.38;86.65;96490.94;5094742;28;20425;-75
2022/07/01 02:22:22;;;;;;;;;;;;;;;14.31;85.49;96503.47;5095182;28;19999;-75
2022/07/01 02:24:48;;;;;;;;;;;;;;;14.31;86.62;96502.66;5095380;28;19966;-75
2022/07/01 02:27:14;;;;;;;;;;;;;;;14.34;87.16;96500.38;5095582;28;19967;-75
2022/07/01 02:29:41;;;;;;;;;;;;;;;14.34;86.55;96499.53;5094792;28;19977;-74
2022/07/01 02:32:07;;;;;;;;;;;;;;;14.34;87.60;96497.72;5095101;28;19958;-75
2022/07/01 02:34:33;;;;;;;;;;;;;;;14.36;87.54;96494.81;5094788;28;20037;-75
2022/07/01 02:36:59;;;;;;;;;;;;;;;14.36;87.64;96485.09;5094946;28;20026;-73
2022/07/01 02:39:25;;;;;;;;;;;;;;;14.37;87.92;96475.34;5093846;28;20048;-74
2022/07/01 02:44:35;;;;;;;;;;;;;;;14.37;88.12;96496.44;5095570;28;19964;-74
2022/07/01 02:47:01;;;;;;;;;;;;;;;14.39;87.86;96491.72;5094402;28;20418;-74
2022/07/01 02:49:27;;;;;;;;;;;;;;;14.34;87.89;96496.91;5094749;28;19969;-73
2022/07/01 02:51:53;;;;;;;;;;;;;;;14.33;87.81;96496.09;5094563;28;19961;-73
2022/07/01 02:54:19;;;;;;;;;;;;;;;14.33;86.72;96509.31;5094602;28;20026;-73
2022/07/01 02:56:45;;;;;;;;;;;;;;;14.32;85.92;96504.25;5094983;28;19957;-74
2022/07/01 02:59:11;;;;;;;;;;;;;;;14.27;86.37;96498.91;5094439;28;20002;-74
2022/07/01 03:01:37;;;;;;;;;;;;;;;14.23;86.73;96503.06;5094226;28;19959;-74
2022/07/01 03:04:02;;;;;;;;;;;;;;;14.23;89.04;96498.59;5094272;28;20403;-74
2022/07/01 03:06:28;;;;;;;;;;;;;;;14.19;85.82;96487.72;5094704;28;20337;-74
2022/07/01 03:08:55;;;;;;;;;;;;;;;14.14;86.75;96495.53;5094469;28;19960;-74
2022/07/01 03:11:21;;;;;;;;;;;;;;;14.08;86.86;96508.88;5078820;28;19987;-74
2022/07/01 03:13:47;;;;;;;;;;;;;;;14.06;89.21;96511.75;5094072;28;19962;-74
2022/07/01 03:16:13;;;;;;;;;;;;;;;14.01;87.94;96522.22;5093042;28;19986;-74
2022/07/01 03:18:39;;;;;;;;;;;;;;;14.00;88.56;96531.16;5094407;28;20049;-74
2022/07/01 03:21:05;;;;;;;;;;;;;;;14.02;89.84;96529.09;5094144;28;20009;-74
2022/07/01 03:23:30;;;;;;;;;;;;;;;14.07;89.34;96528.38;5093290;28;19966;-74
2022/07/01 03:25:56;;;;;;;;;;;;;;;14.09;88.41;96521.03;5093963;28;19967;-74
2022/07/01 03:28:22;;;;;;;;;;;;;;;14.12;88.26;96526.63;5094128;28;19963;-74
2022/07/01 03:30:48;;;;;;;;;;;;;;;14.15;88.60;96528.81;5093723;28;20321;-74
2022/07/01 03:33:14;;;;;;;;;;;;;;;14.20;88.88;96533.34;5093984;28;20364;-74
2022/07/01 03:35:40;;;;;;;;;;;;;;;14.22;87.94;96539.19;5094070;28;20359;-74
2022/07/01 03:38:07;;;;;;;;;;;;;;;14.23;87.39;96540.78;5094108;28;19965;-74
2022/07/01 03:40:33;;;;;;;;;;;;;;;14.18;87.67;96549.41;5093979;28;19960;-74
2022/07/01 03:42:59;;;;;;;;;;;;;;;14.14;87.35;96556.19;5093515;28;19959;-75
2022/07/01 03:45:25;;;;;;;;;;;;;;;14.13;88.56;96562.53;5093851;28;19977;-75
2022/07/01 03:47:51;;;;;;;;;;;;;;;14.12;88.18;96563.56;5094089;28;19958;-73
2022/07/01 03:50:20;;;;;;;;;;;;;;;14.13;87.92;96575.72;5093814;28;19986;-75
2022/07/01 03:52:45;;;;;;;;;;;;;;;14.15;88.33;96578.91;5093786;28;19982;-74
2022/07/01 03:55:12;;;;;;;;;;;;;;;14.18;88.26;96590.81;5092325;28;19954;-73
2022/07/01 03:57:38;;;;;;;;;;;;;;;14.21;88.46;96592.97;5093637;28;19968;-73
2022/07/01 04:00:05;;;;;;;;;;;;;;;14.25;87.78;96603.84;5093552;28;20049;-73
2022/07/01 04:02:30;;;;;;;;;;;;;;;14.27;87.98;96605.22;5093464;28;19976;-73
2022/07/01 04:04:56;;;;;;;;;;;;;;;14.28;88.60;96619.19;5094025;28;20417;-73
2022/07/01 04:07:22;;;;;;;;;;;;;;;14.30;89.05;96625.88;5093523;28;20014;-74
2022/07/01 04:09:48;;;;;;;;;;;;;;;14.32;89.74;96625.59;5093989;28;19976;-74
2022/07/01 04:12:14;;;;;;;;;;;;;;;14.31;88.91;96622.19;5093619;28;20339;-74
2022/07/01 04:14:40;;;;;;;;;;;;;;;14.31;90.09;96630.09;5093194;28;20000;-74
2022/07/01 04:17:06;;;;;;;;;;;;;;;14.31;90.09;96622.19;5093541;28;19968;-74
2022/07/01 04:19:32;;;;;;;;;;;;;;;14.31;89.83;96618.75;5093779;28;19962;-74
2022/07/01 04:24:43;;;;;;;;;;;;;;;14.21;89.64;96600.88;5093766;28;19962;-73
2022/07/01 04:27:09;;;;;;;;;;;;;;;14.23;90.91;96598.81;5093318;28;19964;-74
2022/07/01 04:29:36;;;;;;;;;;;;;;;14.25;89.87;96586.19;5093362;28;19993;-74
2022/07/01 04:32:01;;;;;;;;;;;;;;;14.28;89.38;96592.81;5093382;28;19965;-73
2022/07/01 04:34:27;;;;;;;;;;;;;;;14.27;89.33;96596.50;5093575;28;19965;-72
2022/07/01 04:36:53;;;;;;;;;;;;;;;14.26;89.86;96598.34;5093431;28;20384;-73
2022/07/01 04:39:19;;;;;;;;;;;;;;;14.21;88.23;96600.88;5093339;28;20343;-73
2022/07/01 04:42:00;;;;;;;;;;;;;;;14.20;89.11;96607.22;5094288;28;19963;-73
2022/07/01 04:44:33;;;;;;;;;;;;;;;14.21;88.51;96611.44;5097305;28;19969;-73
2022/07/01 04:46:59;;;;;;;;;;;;;;;14.13;87.83;96617.09;5097180;28;20422;-72
2022/07/01 04:49:25;;;;;;;;;;;;;;;14.10;89.15;96628.13;5096921;28;19970;-73
2022/07/01 04:51:52;;;;;;;;;;;;;;;14.10;90.54;96628.91;5097037;28;19972;-72
2022/07/01 04:54:18;;;;;;;;;;;;;;;14.10;89.94;96638.69;5096986;28;20326;-72
2022/07/01 04:56:44;;;;;;;;;;;;;;;14.09;89.16;96637.06;5097119;28;19963;-73
2022/07/01 04:59:11;;;;;;;;;;;;;;;14.11;89.38;96640.25;5096962;28;20371;-73
2022/07/01 05:01:36;;;;;;;;;;;;;;;14.13;88.98;96640.81;5096762;28;19962;-73
2022/07/01 05:04:02;;;;;;;;;;;;;;;14.15;88.92;96646.66;5096592;28;20380;-74
2022/07/01 05:06:28;;;;;;;;;;;;;;;14.18;89.96;96638.31;5096620;28;20021;-73
2022/07/01 05:08:55;;;;;;;;;;;;;;;14.21;89.81;96645.72;5096434;28;20334;-74
2022/07/01 05:11:20;;;;;;;;;;;;;;;14.23;89.86;96641.03;5096157;28;19978;-74
2022/07/01 05:13:46;;;;;;;;;;;;;;;14.23;90.20;96648.94;5096134;28;20320;-73
2022/07/01 05:16:12;;;;;;;;;;;;;;;14.24;89.04;96645.28;5096488;28;19960;-72
2022/07/01 05:24:07;;;;;;;;;;;;;;;14.25;90.91;96632.88;5087361;28;19963;-73
2022/07/01 05:26:33;;;;;;;;;;;;;;;14.26;89.03;96626.56;5095778;28;19963;-74
2022/07/01 05:28:59;;;;;;;;;;;;;;;14.24;89.47;96631.25;5096473;28;19963;-73
2022/07/01 05:31:25;;;;;;;;;;;;;;;14.25;89.44;96630.25;5096092;28;20029;-74
2022/07/01 05:33:52;;;;;;;;;;;;;;;14.21;88.51;96628.09;5096341;28;20015;-74
2022/07/01 05:36:18;;;;;;;;;;;;;;;14.20;88.84;96636.22;5096178;28;19958;-74
2022/07/01 05:38:44;;;;;;;;;;;;;;;14.19;89.88;96635.44;5096300;28;19956;-73
2022/07/01 05:41:09;;;;;;;;;;;;;;;14.19;89.20;96632.81;5095882;28;20010;-74
2022/07/01 05:43:35;;;;;;;;;;;;;;;14.21;90.01;96637.81;5095988;28;19964;-73
2022/07/01 05:46:01;;;;;;;;;;;;;;;14.23;89.10;96629.69;5094868;28;19961;-73
2022/07/01 05:48:27;;;;;;;;;;;;;;;14.24;89.88;96626.81;5095947;28;19999;-74
2022/07/01 05:50:54;;;;;;;;;;;;;;;14.25;89.75;96633.66;5095651;28;19978;-74
2022/07/01 05:53:20;;;;;;;;;;;;;;;14.25;88.65;96636.31;5094641;28;20453;-73
2022/07/01 05:55:46;;;;;;;;;;;;;;;14.26;89.37;96645.84;5095263;28;20404;-74
2022/07/01 05:58:13;;;;;;;;;;;;;;;14.27;89.53;96651.91;5095906;28;20116;-72
2022/07/01 06:00:41;;;;;;;;;;;;;;;14.27;90.04;96657.97;5095632;28;19959;-73
2022/07/01 06:03:07;;;;;;;;;;;;;;;14.28;89.52;96656.13;5095499;28;19958;-72
2022/07/01 06:05:33;;;;;;;;;;;;;;;14.27;88.81;96670.38;5095614;28;19968;-73
2022/07/01 06:07:59;;;;;;;;;;;;;;;14.25;89.24;96667.97;5095661;28;19959;-73
2022/07/01 06:10:25;;;;;;;;;;;;;;;14.24;89.22;96665.56;5095436;28;20036;-72
2022/07/01 06:12:51;;;;;;;;;;;;;;;14.18;89.35;96678.66;5095608;28;19968;-73
2022/07/01 06:15:17;;;;;;;;;;;;;;;14.15;90.18;96676.50;5094943;28;20037;-73
2022/07/01 06:17:42;;;;;;;;;;;;;;;14.14;88.58;96682.81;5095850;28;20431;-73
2022/07/01 06:20:08;;;;;;;;;;;;;;;14.10;88.70;96683.50;5095328;28;19992;-74
2022/07/01 06:22:34;;;;;;;;;;;;;;;14.10;89.55;96696.69;5095329;28;20405;-73
2022/07/01 06:25:01;;;;;;;;;;;;;;;14.05;89.21;96697.41;5095072;28;19958;-73
2022/07/01 06:27:27;;;;;;;;;;;;;;;14.00;88.77;96692.81;5095267;28;20342;-74
2022/07/01 06:29:55;;;;;;;;;;;;;;;13.98;90.04;96696.72;5078875;28;19978;-74
2022/07/01 06:32:21;;;;;;;;;;;;;;;13.98;89.93;96692.25;5094849;28;19959;-74
2022/07/01 06:34:51;;;;;;;;;;;;;;;14.02;88.86;96697.84;5095550;28;20463;-74
2022/07/01 06:37:20;;;;;;;;;;;;;;;14.06;89.77;96696.34;5095071;28;19962;-74
2022/07/01 06:39:46;;;;;;;;;;;;;;;14.09;89.31;96695.06;5094402;28;19957;-73
2022/07/01 06:42:11;;;;;;;;;;;;;;;14.11;89.55;96701.75;5094874;28;20405;-74
2022/07/01 06:44:37;;;;;;;;;;;;;;;14.20;90.38;96710.09;5095112;28;20425;-74
2022/07/01 06:47:03;;;;;;;;;;;;;;;14.41;91.52;96712.06;5093763;28;20078;-75
2022/07/01 06:49:29;;;;;;;;;;;;;;;14.66;89.93;96710.97;5094968;28;20051;-74
2022/07/01 06:51:55;;;;;;;;;;;;;;;14.78;87.73;96709.06;5094784;28;20325;-74
2022/07/01 06:54:21;;;;;;;;;;;;;;;14.80;86.64;96714.91;5094446;28;20013;-74
2022/07/01 06:56:47;;;;;;;;;;;;;;;14.78;86.76;96724.91;5094511;28;19989;-74
2022/07/01 06:59:14;;;;;;;;;;;;;;;14.72;86.07;96725.84;5094356;28;20036;-74
2022/07/01 07:01:41;;;;;;;;;;;;;;;14.66;86.31;96712.78;5095030;28;19962;-74
2022/07/01 07:04:07;;;;;;;;;;;;;;;14.61;87.23;96716.13;5093981;28;19963;-74
2022/07/01 07:06:32;;;;;;;;;;;;;;;14.56;87.25;96710.78;5094185;28;20009;-74
2022/07/01 07:08:58;;;;;;;;;;;;;;;14.51;85.66;96708.00;5094328;28;20071;-74
2022/07/01 07:11:25;;;;;;;;;;;;;;;14.45;86.81;96719.50;5094231;28;19974;-74
2022/07/01 07:13:51;;;;;;;;;;;;;;;14.34;86.08;96724.59;5093967;28;19963;-75
2022/07/01 07:16:20;;;;;;;;;;;;;;;14.23;88.01;96714.88;5093652;28;20036;-73
2022/07/01 07:18:47;;;;;;;;;;;;;;;14.11;85.99;96729.94;5094013;28;19956;-74
2022/07/01 07:21:12;;;;;;;;;;;;;;;14.04;89.03;96756.44;5093984;28;19978;-74
2022/07/01 07:23:38;;;;;;;;;;;;;;;14.01;87.85;96752.44;5094021;28;20428;-74
2022/07/01 07:26:04;;;;;;;;;;;;;;;13.99;90.16;96754.50;5094126;28;20007;-75
2022/07/01 07:28:30;;;;;;;;;;;;;;;14.00;89.22;96748.19;5094471;28;19962;-74
2022/07/01 07:30:56;;;;;;;;;;;;;;;14.00;87.55;96742.09;5093930;28;20059;-74
2022/07/01 07:33:22;;;;;;;;;;;;;;;13.99;87.14;96730.75;5092553;28;19997;-74
2022/07/01 07:35:48;;;;;;;;;;;;;;;14.04;89.87;96731.91;5094167;28;20318;-74
2022/07/01 07:38:14;;;;;;;;;;;;;;;14.09;89.62;96739.91;5094214;28;19965;-74
2022/07/01 07:40:40;;;;;;;;;;;;;;;14.09;87.93;96739.91;5093413;28;19957;-74
2022/07/01 07:43:07;;;;;;;;;;;;;;;14.10;88.23;96729.13;5093872;28;19955;-74
2022/07/01 07:45:33;;;;;;;;;;;;;;;14.06;87.10;96730.63;5093736;28;20414;-74
2022/07/01 07:48:00;;;;;;;;;;;;;;;14.04;87.92;96730.06;5094469;28;19963;-73
2022/07/01 07:50:26;;;;;;;;;;;;;;;14.04;88.42;96732.69;5093799;28;19971;-74
2022/07/01 07:52:52;;;;;;;;;;;;;;;13.99;87.05;96738.69;5093813;28;20323;-74
2022/07/01 07:55:18;;;;;;;;;;;;;;;13.88;88.78;96751.88;5093772;28;20008;-74
2022/07/01 07:57:44;;;;;;;;;;;;;;;13.89;88.88;96756.91;5094132;28;20498;-74
2022/07/01 08:00:11;;;;;;;;;;;;;;;13.94;90.68;96754.41;5093692;28;19964;-74
2022/07/01 08:02:37;;;;;;;;;;;;;;;14.01;91.18;96760.34;5093710;28;19964;-74
2022/07/01 08:05:03;;;;;;;;;;;;;;;14.08;89.77;96754.13;5093392;28;20326;-74
2022/07/01 08:07:29;;;;;;;;;;;;;;;14.12;88.33;96761.34;5093492;28;20411;-74
2022/07/01 08:09:55;;;;;;;;;;;;;;;14.13;89.44;96765.59;5092529;28;20043;-74
2022/07/01 08:12:22;;;;;;;;;;;;;;;14.15;88.46;96770.63;5092439;28;19976;-75
2022/07/01 08:14:48;;;;;;;;;;;;;;;14.17;88.50;96769.38;5093257;28;19992;-74
2022/07/01 08:17:14;;;;;;;;;;;;;;;14.18;87.83;96768.34;5095796;28;19995;-74
2022/07/01 08:19:40;;;;;;;;;;;;;;;14.16;86.91;96764.34;5097515;28;19999;-74
2022/07/01 08:22:06;;;;;;;;;;;;;;;14.14;87.69;96766.41;5097597;28;19976;-74
2022/07/01 08:24:32;;;;;;;;;;;;;;;14.14;89.30;96782.22;5097428;28;20026;-74
2022/07/01 08:26:57;;;;;;;;;;;;;;;14.14;88.46;96787.50;5097594;28;20324;-74
2022/07/01 08:29:23;;;;;;;;;;;;;;;14.12;88.80;96805.41;5098321;28;19961;-73
2022/07/01 08:31:49;;;;;;;;;;;;;;;14.09;88.11;96811.94;5097367;28;20025;-73
2022/07/01 08:34:15;;;;;;;;;;;;;;;14.10;89.85;96805.63;5097319;28;19966;-73
2022/07/01 08:36:41;;;;;;;;;;;;;;;14.12;89.40;96797.47;5097673;28;19971;-73
2022/07/01 08:39:07;;;;;;;;;;;;;;;14.13;91.53;96791.97;5097103;28;20002;-74
2022/07/01 08:41:33;;;;;;;;;;;;;;;14.17;90.14;96801.03;5097515;28;19962;-73
2022/07/01 08:43:58;;;;;;;;;;;;;;;14.21;89.76;96812.72;5096789;28;19957;-74
2022/07/01 08:46:27;;;;;;;;;;;;;;;14.23;90.25;96807.19;5097672;28;19962;-73
2022/07/01 08:48:53;;;;;;;;;;;;;;;14.25;89.91;96822.81;5096952;28;20408;-73
2022/07/01 08:51:19;;;;;;;;;;;;;;;14.27;90.64;96826.00;5096861;28;19979;-73
2022/07/01 08:53:45;;;;;;;;;;;;;;;14.25;90.86;96817.53;5096891;28;19990;-74
2022/07/01 08:58:55;;;;;;;;;;;;;;;14.27;92.21;96805.72;5097577;28;19963;-73
2022/07/01 09:01:22;;;;;;;;;;;;;;;14.19;90.99;96793.69;5095711;28;19959;-73
2022/07/01 09:03:52;;;;;;;;;;;;;;;14.15;90.80;96781.19;5096712;28;19963;-73
2022/07/01 09:06:21;;;;;;;;;;;;;;;14.10;89.79;96781.88;5096724;28;20320;-74
2022/07/01 09:08:48;;;;;;;;;;;;;;;14.07;90.52;96790.28;5096433;28;19958;-74
2022/07/01 09:11:15;;;;;;;;;;;;;;;14.02;90.36;96803.31;5094926;28;19973;-74
2022/07/01 09:13:41;;;;;;;;;;;;;;;13.99;90.81;96803.81;5096337;28;19977;-74
2022/07/01 09:16:15;;;;;;;;;;;;;;;13.96;90.17;96812.16;5096559;28;19976;-73
2022/07/01 09:18:40;;;;;;;;;;;;;;;13.95;92.02;96813.19;5096363;28;19958;-74
2022/07/01 09:21:13;;;;;;;;;;;;;;;13.96;90.56;96815.63;5096648;28;20014;-74
2022/07/01 09:23:39;;;;;;;;;;;;;;;13.97;90.75;96814.56;5096614;28;19958;-74
2022/07/01 09:26:05;;;;;;;;;;;;;;;14.05;91.85;96820.53;5095101;28;19950;-74
2022/07/01 09:28:31;;;;;;;;;;;;;;;14.09;92.80;96824.31;5096367;28;19977;-74
2022/07/01 09:30:57;;;;;;;;;;;;;;;14.04;91.07;96817.09;5095991;28;19994;-74
2022/07/01 09:33:24;;;;;;;;;;;;;;;14.02;93.01;96829.69;5096081;28;19974;-74
2022/07/01 09:35:51;;;;;;;;;;;;;;;13.97;92.81;96825.13;5095425;28;19960;-74
2022/07/01 09:38:19;;;;;;;;;;;;;;;14.00;93.78;96814.09;5096252;28;19968;-74
2022/07/01 09:40:51;;;;;;;;;;;;;;;14.08;92.58;96807.69;5096260;28;19961;-74
2022/07/01 09:43:18;;;;;;;;;;;;;;;14.13;92.62;96805.16;5096145;28;19959;-74
2022/07/01 09:45:50;;;;;;;;;;;;;;;14.17;92.80;96808.94;5096027;28;19967;-75
2022/07/01 09:48:19;;;;;;;;;;;;;;;14.21;93.66;96809.28;5095957;28;19963;-74
2022/07/01 09:50:45;;;;;;;;;;;;;;;14.26;90.98;96817.31;5095629;28;20339;-74
2022/07/01 09:53:12;;;;;;;;;;;;;;;14.34;92.03;96826.69;5095947;28;20335;-74
2022/07/01 09:55:39;;;;;;;;;;;;;;;14.41;92.65;96824.72;5095922;28;19975;-74
2022/07/01 09:58:06;;;;;;;;;;;;;;;14.51;91.82;96818.84;5095810;28;20419;-74
2022/07/01 10:00:34;;;;;;;;;;;;;;;14.59;91.80;96818.50;5095584;28;19953;-74
2022/07/01 10:03:00;;;;;;;;;;;;;;;14.66;91.91;96836.84;5095948;28;19958;-74
2022/07/01 10:05:28;;;;;;;;;;;;;;;14.68;90.04;96835.59;5095937;28;19958;-74
2022/07/01 10:08:13;;;;;;;;;;;;;;;14.73;90.60;96824.34;5095596;28;19952;-74
2022/07/01 10:10:58;;;;;;;;;;;;;;;14.82;90.84;96815.81;5095350;28;19956;-75
2022/07/01 10:13:26;;;;;;;;;;;;;;;14.91;88.81;96805.66;5095736;28;19968;-74
2022/07/01 10:15:53;;;;;;;;;;;;;;;14.99;89.02;96812.41;5095284;28;19977;-74
2022/07/01 10:18:21;;;;;;;;;;;;;;;15.02;85.48;96822.50;5095429;28;19955;-74
2022/07/01 10:20:48;;;;;;;;;;;;;;;15.06;87.28;96833.41;5095228;28;19965;-74
2022/07/01 10:23:14;;;;;;;;;;;;;;;15.08;85.19;96829.47;5095197;28;20339;-74
2022/07/01 10:25:47;;;;;;;;;;;;;;;15.10;85.14;96837.97;5094953;28;19964;-75
2022/07/01 10:28:25;;;;;;;;;;;;;;;15.16;86.90;96838.84;5095275;28;20316;-74
2022/07/01 10:31:15;;;;;;;;;;;;;;;15.28;87.02;96854.66;5080419;28;19954;-73
2022/07/01 10:34:07;;;;;;;;;;;;;;;15.41;83.46;96838.47;5091583;28;19961;-74
2022/07/01 10:36:34;;;;;;;;;;;;;;;15.51;87.92;96859.81;5095071;28;19965;-73
2022/07/01 10:39:00;;;;;;;;;;;;;;;15.61;83.38;96851.25;5094382;28;19958;-74
2022/07/01 10:41:36;;;;;;;;;;;;;;;15.64;86.21;96861.34;5094874;28;19952;-74
2022/07/01 10:44:03;;;;;;;;;;;;;;;15.71;83.16;96859.34;5094864;28;20418;-75
2022/07/01 10:46:45;;;;;;;;;;;;;;;15.82;85.74;96865.63;5094657;28;19952;-74
2022/07/01 10:49:13;;;;;;;;;;;;;;;16.09;85.67;96868.41;5094784;28;19948;-74
2022/07/01 10:51:57;;;;;;;;;;;;;;;16.47;84.36;96866.03;5094514;28;19999;-74
2022/07/01 10:55:09;;;;;;;;;;;;;;;16.77;79.10;96857.66;5094815;28;19957;-74
2022/07/01 10:57:35;;;;;;;;;;;;;;;16.79;76.71;96848.41;5087651;28;19956;-74
2022/07/01 11:00:01;;;;;;;;;;;;;;;16.66;80.20;96871.81;5094293;28;19961;-74
2022/07/01 11:02:28;;;;;;;;;;;;;;;16.57;77.16;96858.22;5094381;28;19959;-74
2022/07/01 11:04:55;;;;;;;;;;;;;;;16.53;80.50;96859.75;5094286;28;19955;-74
2022/07/01 11:07:24;;;;;;;;;;;;;;;16.56;79.72;96861.91;5094766;28;19952;-74
2022/07/01 11:09:50;;;;;;;;;;;;;;;16.59;81.19;96856.13;5094315;28;20135;-75
2022/07/01 11:12:18;;;;;;;;;;;;;;;16.58;77.93;96851.84;5094217;28;20025;-74
2022/07/01 11:14:44;;;;;;;;;;;;;;;16.52;79.23;96864.22;5094109;28;19984;-74
2022/07/01 11:17:10;;;;;;;;;;;;;;;16.48;76.11;96838.50;5094443;28;19991;-74
2022/07/01 11:19:36;;;;;;;;;;;;;;;16.43;75.64;96850.63;5094177;28;20418;-74
2022/07/01 11:22:02;;;;;;;;;;;;;;;16.38;77.94;96869.09;5094152;28;19968;-74
2022/07/01 11:24:28;;;;;;;;;;;;;;;16.38;78.22;96869.09;5093994;28;19979;-74
2022/07/01 11:26:59;;;;;;;;;;;;;;;16.39;76.13;96868.03;5093850;28;20310;-74
2022/07/01 11:29:26;;;;;;;;;;;;;;;16.43;79.71;96865.69;5094506;28;20348;-74
2022/07/01 11:31:52;;;;;;;;;;;;;;;16.48;78.96;96864.97;5093772;28;19971;-74
2022/07/01 11:34:18;;;;;;;;;;;;;;;16.50;78.91;96868.97;5092641;28;19968;-74
2022/07/01 11:39:33;;;;;;;;;;;;;;;16.46;80.18;96877.66;5094418;28;20435;-74
2022/07/01 11:42:00;;;;;;;;;;;;;;;16.47;80.48;96874.75;5093894;28;19964;-74
2022/07/01 11:44:32;;;;;;;;;;;;;;;16.50;80.55;96874.25;5093641;28;19961;-75
2022/07/01 11:46:59;;;;;;;;;;;;;;;16.53;80.83;96876.44;5093736;28;19961;-74
2022/07/01 11:49:25;;;;;;;;;;;;;;;16.54;81.17;96878.03;5093663;28;19961;-74
2022/07/01 11:51:55;;;;;;;;;;;;;;;16.53;81.18;96879.09;5093827;28;20003;-74
2022/07/01 11:54:22;;;;;;;;;;;;;;;16.51;80.33;96877.72;5093469;28;20426;-74
2022/07/01 11:56:48;;;;;;;;;;;;;;;16.49;79.94;96875.31;5093683;28;19960;-74
2022/07/01 11:59:14;;;;;;;;;;;;;;;16.47;79.77;96882.69;5093483;28;19980;-74
2022/07/01 12:01:39;;;;;;;;;;;;;;;16.46;80.83;96889.03;5093678;28;20294;-74
2022/07/01 12:04:07;;;;;;;;;;;;;;;16.46;81.11;96882.94;5092484;28;20035;-74
2022/07/01 12:06:33;;;;;;;;;;;;;;;16.42;81.81;96875.50;5093822;28;19957;-74
2022/07/01 12:09:00;;;;;;;;;;;;;;;16.44;82.03;96876.06;5092358;28;19961;-75
2022/07/01 12:11:27;;;;;;;;;;;;;;;16.47;81.04;96874.75;5093606;28;19977;-74
2022/07/01 12:13:53;;;;;;;;;;;;;;;16.50;81.04;96870.81;5093249;28;19959;-74
2022/07/01 12:16:19;;;;;;;;;;;;;;;16.57;77.00;96864.31;5094128;28;19978;-74
2022/07/01 12:19:02;;;;;;;;;;;;;;;16.66;78.61;96862.03;5093405;28;19965;-74
2022/07/01 12:21:29;;;;;;;;;;;;;;;16.77;71.95;96833.81;5093769;28;19960;-74
2022/07/01 12:24:05;;;;;;;;;;;;;;;16.71;73.41;96848.84;5093403;28;19962;-74
2022/07/01 12:26:31;;;;;;;;;;;;;;;16.69;73.08;96842.97;5093388;28;20331;-74
2022/07/01 12:28:57;;;;;;;;;;;;;;;16.66;72.95;96856.72;5093835;28;19958;-74
2022/07/01 12:31:22;;;;;;;;;;;;;;;16.60;74.72;96863.00;5093430;28;19957;-74
2022/07/01 12:33:50;;;;;;;;;;;;;;;16.63;77.43;96871.28;5093306;28;20453;-74
2022/07/01 12:36:16;;;;;;;;;;;;;;;16.61;74.71;96848.75;5092448;28;19966;-74
2022/07/01 12:38:42;;;;;;;;;;;;;;;16.54;71.79;96840.16;5093606;28;19956;-74
2022/07/01 12:41:27;;;;;;;;;;;;;;;16.53;73.96;96857.09;5093115;28;19956;-74
2022/07/01 12:43:53;;;;;;;;;;;;;;;16.69;75.32;96866.03;5092956;28;19985;-74
2022/07/01 12:46:29;;;;;;;;;;;;;;;16.82;74.75;96863.06;5093238;28;19983;-74
2022/07/01 12:48:56;;;;;;;;;;;;;;;16.95;73.14;96856.56;5081145;28;19959;-74
2022/07/01 12:51:27;;;;;;;;;;;;;;;17.07;73.31;96857.22;5093040;28;19963;-74
2022/07/01 12:53:53;;;;;;;;;;;;;;;17.19;73.07;96857.88;5093513;28;19976;-74
2022/07/01 12:56:24;;;;;;;;;;;;;;;17.28;72.57;96857.41;5093307;28;20455;-74
2022/07/01 12:58:52;;;;;;;;;;;;;;;17.41;75.81;96871.09;5093390;28;19960;-74
2022/07/01 13:01:19;;;;;;;;;;;;;;;17.64;74.80;96863.88;5093016;28;19956;-74
2022/07/01 13:03:45;;;;;;;;;;;;;;;17.76;71.85;96845.91;5095565;28;19958;-75